Time;durP1;ratioP1;P1;durP2;ratioP2;P2;SDS_P1;SDS_P2;PMS_P1;PMS_P2;Temp;Humidity;BMP_temperature;BMP_pressure;BME280_temperature;BME280_humidity;BME280_pressure;Samples;Min_cycle;Max_cycle;Signal;HPM_P1;HPM_P2
2021/12/04 00:02:32;;;;;;;19.98;10.48;;;;;;;-3.11;100.00;100364.00;6697195;26;34076;-66
2021/12/04 00:05:35;;;;;;;17.33;10.57;;;;;;;-3.14;100.00;100356.38;6716913;26;34110;-67
2021/12/04 00:08:37;;;;;;;24.33;11.05;;;;;;;-3.30;100.00;100345.16;6716779;26;33820;-66
2021/12/04 00:11:51;;;;;;;21.05;11.70;;;;;;;-3.37;100.00;100351.56;6716873;26;33982;-66
2021/12/04 00:14:53;;;;;;;23.00;12.23;;;;;;;-3.39;100.00;100344.78;6716728;26;34833;-67
2021/12/04 00:17:58;;;;;;;21.70;11.85;;;;;;;-3.44;100.00;100339.84;6717177;26;34421;-66
2021/12/04 00:21:00;;;;;;;24.25;11.98;;;;;;;-3.46;100.00;100333.91;6716868;26;34597;-66
2021/12/04 00:24:04;;;;;;;23.17;12.73;;;;;;;-3.47;100.00;100326.19;6697283;26;33707;-67
2021/12/04 00:27:06;;;;;;;24.27;12.32;;;;;;;-3.44;100.00;100333.81;6698097;26;34028;-66
2021/12/04 00:30:09;;;;;;;20.05;11.25;;;;;;;-3.45;100.00;100334.75;6718062;26;34485;-66
2021/12/04 00:33:19;;;;;;;19.37;11.02;;;;;;;-3.49;100.00;100331.47;6717787;26;33741;-66
2021/12/04 00:49:32;;;;;;;25.60;13.48;;;;;;;-3.53;100.00;100322.16;6717780;26;34208;-66
2021/12/04 00:52:35;;;;;;;26.65;13.18;;;;;;;-3.54;100.00;100333.47;6717957;26;34505;-66
2021/12/04 00:55:38;;;;;;;24.17;13.05;;;;;;;-3.58;100.00;100326.75;6717873;26;34698;-66
2021/12/04 00:58:40;;;;;;;28.83;13.15;;;;;;;-3.63;100.00;100316.62;6717942;26;34529;-66
2021/12/04 01:01:44;;;;;;;27.30;12.80;;;;;;;-3.67;100.00;100328.06;6718013;26;34383;-66
2021/12/04 01:04:48;;;;;;;25.58;13.38;;;;;;;-3.67;100.00;100327.22;6717805;26;33858;-66
2021/12/04 01:07:51;;;;;;;25.90;12.43;;;;;;;-3.69;100.00;100316.13;6717732;26;33973;-66
2021/12/04 01:10:53;;;;;;;27.77;12.45;;;;;;;-3.76;100.00;100314.75;6698029;26;34123;-66
2021/12/04 01:13:56;;;;;;;27.40;13.93;;;;;;;-3.80;100.00;100315.81;6697946;26;34612;-66
2021/12/04 01:17:00;;;;;;;27.95;13.88;;;;;;;-3.79;100.00;100320.09;6717628;26;34911;-66
2021/12/04 01:20:04;;;;;;;28.90;14.20;;;;;;;-3.79;100.00;100338.25;6698081;26;33969;-66
2021/12/04 01:23:07;;;;;;;31.55;14.57;;;;;;;-3.80;100.00;100329.63;6698256;26;34162;-66
2021/12/04 01:26:09;;;;;;;31.15;14.98;;;;;;;-3.77;100.00;100331.19;6717903;26;33858;-66
2021/12/04 01:29:13;;;;;;;26.55;13.27;;;;;;;-3.79;100.00;100335.66;6717770;26;33733;-66
2021/12/04 01:32:16;;;;;;;26.73;12.80;;;;;;;-3.43;100.00;100336.31;6717778;26;33889;-66
2021/12/04 01:35:18;;;;;;;30.17;14.07;;;;;;;-3.54;100.00;100329.13;6717180;26;34337;-66
2021/12/04 01:38:21;;;;;;;23.85;12.75;;;;;;;-3.56;100.00;100335.28;6715998;26;33850;-66
2021/12/04 01:41:25;;;;;;;25.15;12.60;;;;;;;-3.67;100.00;100329.81;6696437;26;34473;-66
2021/12/04 01:44:28;;;;;;;26.45;11.95;;;;;;;-3.75;100.00;100326.78;6716551;26;33858;-66
2021/12/04 01:47:30;;;;;;;26.45;13.00;;;;;;;-3.71;100.00;100323.12;6716000;26;34411;-66
2021/12/04 01:50:35;;;;;;;21.83;11.82;;;;;;;-3.70;100.00;100327.41;6716456;26;34081;-66
2021/12/04 01:53:38;;;;;;;22.15;12.40;;;;;;;-3.64;100.00;100330.53;6716023;26;34099;-66
2021/12/04 01:56:41;;;;;;;28.48;14.57;;;;;;;-3.63;100.00;100316.62;6716036;26;33974;-66
2021/12/04 01:59:44;;;;;;;25.48;14.20;;;;;;;-3.61;100.00;100321.72;6715969;26;33944;-66
2021/12/04 02:02:47;;;;;;;28.38;15.52;;;;;;;-3.71;100.00;100307.56;6696505;26;34095;-66
2021/12/04 02:05:51;;;;;;;26.10;14.63;;;;;;;-3.53;100.00;100301.41;6716329;26;33857;-66
2021/12/04 02:08:53;;;;;;;31.98;16.08;;;;;;;-3.32;100.00;100297.69;6715824;26;33813;-66
2021/12/04 02:11:56;;;;;;;34.50;16.83;;;;;;;-3.48;100.00;100307.19;6696329;26;34650;-66
2021/12/04 02:14:59;;;;;;;34.13;16.77;;;;;;;-3.39;100.00;100303.31;6715813;26;34091;-66
2021/12/04 02:18:05;;;;;;;35.17;16.87;;;;;;;-3.59;100.00;100306.94;6715710;26;34840;-66
2021/12/04 02:21:07;;;;;;;32.78;17.83;;;;;;;-3.74;100.00;100300.81;6715809;26;34328;-66
2021/12/04 02:24:10;;;;;;;35.92;18.80;;;;;;;-3.86;100.00;100295.41;6716212;26;33835;-66
2021/12/04 02:27:13;;;;;;;37.60;18.42;;;;;;;-3.93;100.00;100294.06;6715380;26;34513;-65
2021/12/04 02:30:19;;;;;;;35.63;18.60;;;;;;;-3.91;100.00;100287.00;6716179;26;33792;-66
2021/12/04 02:33:22;;;;;;;36.25;19.35;;;;;;;-3.99;100.00;100290.00;6696305;26;34147;-66
2021/12/04 02:36:25;;;;;;;39.15;19.55;;;;;;;-4.05;100.00;100287.72;6693037;26;106721;-66
2021/12/04 02:39:32;;;;;;;37.28;19.12;;;;;;;-4.11;100.00;100281.09;6717299;26;34409;-65
2021/12/04 02:42:35;;;;;;;47.90;22.75;;;;;;;-4.15;100.00;100274.41;6717380;26;34068;-66
2021/12/04 02:45:38;;;;;;;46.65;26.30;;;;;;;-4.22;100.00;100277.41;6717265;26;34086;-65
2021/12/04 02:48:42;;;;;;;46.78;25.15;;;;;;;-4.18;100.00;100273.72;6716889;26;34180;-65
2021/12/04 02:51:45;;;;;;;43.28;24.60;;;;;;;-4.12;100.00;100276.88;6717649;26;33815;-66
2021/12/04 02:54:50;;;;;;;40.25;22.58;;;;;;;-3.91;100.00;100274.06;6717393;26;33620;-65
2021/12/04 02:57:53;;;;;;;43.55;21.25;;;;;;;-4.10;100.00;100272.41;6717556;26;34439;-65
2021/12/04 03:00:55;;;;;;;43.63;20.85;;;;;;;-4.23;100.00;100266.19;6717373;26;33926;-66
2021/12/04 03:04:09;;;;;;;37.30;20.00;;;;;;;-4.25;100.00;100262.00;6717295;26;34226;-66
2021/12/04 03:07:12;;;;;;;37.83;19.52;;;;;;;-4.26;100.00;100271.50;6717318;26;34398;-66
2021/12/04 03:10:15;;;;;;;41.05;19.58;;;;;;;-4.34;100.00;100275.41;6717396;26;33671;-65
2021/12/04 03:13:20;;;;;;;41.25;20.02;;;;;;;-4.39;100.00;100279.06;6697839;26;34547;-66
2021/12/04 03:16:24;;;;;;;40.55;19.95;;;;;;;-4.42;100.00;100268.03;6717356;26;34680;-66
2021/12/04 03:19:27;;;;;;;41.40;20.05;;;;;;;-4.47;100.00;100264.84;6717060;26;34337;-66
2021/12/04 03:22:30;;;;;;;40.38;20.95;;;;;;;-4.47;100.00;100262.25;6717119;26;34104;-65
2021/12/04 03:25:32;;;;;;;44.92;22.60;;;;;;;-4.53;100.00;100265.97;6717571;26;34367;-65
2021/12/04 03:28:35;;;;;;;45.10;22.83;;;;;;;-4.34;100.00;100272.81;6717122;26;33892;-66
2021/12/04 03:41:42;;;;;;;42.03;20.75;;;;;;;-4.56;100.00;100242.00;6708941;26;34542;-66
2021/12/04 03:44:45;;;;;;;50.97;23.20;;;;;;;-4.59;100.00;100230.03;6717156;26;34721;-65
2021/12/04 03:47:52;;;;;;;53.42;25.65;;;;;;;-4.56;100.00;100223.87;6717117;26;34518;-66
2021/12/04 03:50:55;;;;;;;57.62;27.70;;;;;;;-4.51;100.00;100214.13;6697256;26;34829;-66
2021/12/04 03:53:58;;;;;;;55.75;26.58;;;;;;;-4.48;100.00;100208.78;6717120;26;33870;-66
2021/12/04 03:57:05;;;;;;;50.97;26.62;;;;;;;-4.60;100.00;100199.87;6697583;26;34028;-66
2021/12/04 04:00:08;;;;;;;51.35;25.83;;;;;;;-4.63;100.00;100199.19;6717008;26;34739;-66
2021/12/04 04:03:14;;;;;;;49.65;26.17;;;;;;;-4.73;100.00;100191.06;6717055;26;34119;-65
2021/12/04 04:06:17;;;;;;;56.03;29.45;;;;;;;-4.72;100.00;100200.50;6697118;26;33904;-65
2021/12/04 04:09:20;;;;;;;51.85;28.20;;;;;;;-4.72;100.00;100194.47;6717341;26;33799;-65
2021/12/04 04:12:23;;;;;;;56.35;25.98;;;;;;;-4.70;100.00;100195.25;6716911;26;34693;-65
2021/12/04 04:15:26;;;;;;;51.58;28.73;;;;;;;-4.77;100.00;100205.06;6716700;26;34006;-66
2021/12/04 04:18:31;;;;;;;51.63;29.23;;;;;;;-4.76;100.00;100198.12;6716876;26;34762;-66
2021/12/04 04:21:39;;;;;;;50.78;25.83;;;;;;;-4.82;100.00;100191.50;6696844;26;34271;-66
2021/12/04 04:24:42;;;;;;;50.45;27.77;;;;;;;-4.85;100.00;100179.59;6716680;26;34417;-67
2021/12/04 04:27:45;;;;;;;47.80;24.95;;;;;;;-4.87;100.00;100176.22;6716656;26;34664;-67
2021/12/04 04:30:48;;;;;;;41.03;22.35;;;;;;;-4.84;100.00;100188.16;6716518;26;34074;-66
2021/12/04 04:33:57;;;;;;;47.20;23.23;;;;;;;-4.87;100.00;100196.06;6716761;26;34004;-66
2021/12/04 04:37:58;;;;;;;41.22;21.48;;;;;;;-4.92;100.00;100193.72;6697739;26;34761;-66
2021/12/04 05:13:52;;;;;;;30.90;16.80;;;;;;;-4.34;100.00;100206.34;6658077;26;34594;-66
2021/12/04 05:17:06;;;;;;;30.50;16.05;;;;;;;-4.62;100.00;100203.47;6658874;26;33857;-67
2021/12/04 05:20:14;;;;;;;27.17;15.65;;;;;;;-4.72;100.00;100200.50;6658613;26;34657;-68
2021/12/04 05:23:16;;;;;;;30.85;16.33;;;;;;;-4.74;100.00;100204.09;6658642;26;34316;-66
2021/12/04 05:26:26;;;;;;;32.20;16.20;;;;;;;-4.76;100.00;100196.37;6658622;26;34422;-68
2021/12/04 05:29:29;;;;;;;31.85;17.00;;;;;;;-4.84;100.00;100193.31;6640082;26;32880;-68
2021/12/04 05:32:31;;;;;;;28.85;15.85;;;;;;;-4.87;100.00;100196.06;6658776;26;34059;-68
2021/12/04 05:35:35;;;;;;;29.73;16.45;;;;;;;-4.85;100.00;100197.69;6658566;26;34503;-68
2021/12/04 05:38:38;;;;;;;27.60;15.85;;;;;;;-4.90;100.00;100197.06;6658873;26;34239;-68
2021/12/04 05:41:41;;;;;;;33.03;16.92;;;;;;;-4.95;100.00;100187.88;6696569;26;34111;-68
2021/12/04 05:44:44;;;;;;;38.63;18.25;;;;;;;-4.93;100.00;100192.03;6717701;26;33996;-68
2021/12/04 05:47:55;;;;;;;32.38;16.55;;;;;;;-4.93;100.00;100199.78;6717643;26;34665;-68
2021/12/04 05:51:36;;;;;;;;;;;;;;;-4.92;100.00;100193.72;6717831;26;34104;-68
2021/12/04 05:54:45;;;;;;;45.97;20.23;;;;;;;-4.96;100.00;100193.94;6715540;26;34254;-68
2021/12/04 05:57:47;;;;;;;42.42;21.45;;;;;;;-4.99;100.00;100189.78;6697524;26;34342;-68
2021/12/04 06:00:51;;;;;;;45.30;22.42;;;;;;;-4.99;100.00;100183.75;6717641;26;34222;-69
2021/12/04 06:03:54;;;;;;;45.03;23.15;;;;;;;-4.90;100.00;100185.87;6717834;26;34605;-67
2021/12/04 06:06:57;;;;;;;42.03;21.67;;;;;;;-4.78;100.00;100192.19;6717606;26;34564;-69
2021/12/04 06:10:00;;;;;;;43.30;21.45;;;;;;;-4.90;100.00;100181.56;6717768;26;34705;-68
2021/12/04 06:13:02;;;;;;;49.10;23.15;;;;;;;-4.91;100.00;100184.22;6697448;26;34154;-68
2021/12/04 06:16:05;;;;;;;44.28;22.77;;;;;;;-4.90;100.00;100184.13;6717776;26;35102;-68
2021/12/04 06:19:14;;;;;;;41.67;21.98;;;;;;;-4.94;100.00;100174.03;6717434;26;33842;-68
2021/12/04 06:25:38;;;;;;;39.60;19.83;;;;;;;-4.73;100.00;100177.28;6717423;26;34198;-68
2021/12/04 06:28:41;;;;;;;39.63;18.10;;;;;;;-4.67;100.00;100179.56;6716997;26;34248;-68
2021/12/04 06:31:44;;;;;;;36.33;18.23;;;;;;;-4.74;100.00;100176.44;6717132;26;33984;-70
2021/12/04 06:34:47;;;;;;;37.42;18.65;;;;;;;-4.71;100.00;100175.47;6697100;26;33907;-68
2021/12/04 06:37:50;;;;;;;39.17;19.95;;;;;;;-4.78;100.00;100174.06;6717491;26;34188;-68
2021/12/04 06:40:54;;;;;;;42.50;20.95;;;;;;;-4.82;100.00;100163.06;6717295;26;34066;-68
2021/12/04 06:43:57;;;;;;;43.10;20.35;;;;;;;-4.89;100.00;100165.09;6717352;26;33926;-68
2021/12/04 06:47:00;;;;;;;39.17;20.45;;;;;;;-4.84;100.00;100173.47;6717307;26;34727;-68
2021/12/04 06:50:08;;;;;;;50.12;22.95;;;;;;;-4.73;100.00;100177.28;6716777;26;34628;-68
2021/12/04 06:56:36;;;;;;;42.62;21.98;;;;;;;-4.46;100.00;100166.37;6692944;26;35216;-68
2021/12/04 06:59:41;;;;;;;50.12;22.87;;;;;;;-4.51;100.00;100168.38;6716829;26;34893;-68
2021/12/04 07:02:43;;;;;;;42.08;21.20;;;;;;;-4.54;100.00;100165.06;6717254;26;34057;-68
2021/12/04 07:05:47;;;;;;;42.47;21.48;;;;;;;-4.39;100.00;100166.88;6717342;26;34481;-69
2021/12/04 07:08:49;;;;;;;42.92;22.55;;;;;;;-4.36;100.00;100165.91;6717462;26;33865;-69
2021/12/04 07:11:53;;;;;;;46.90;23.90;;;;;;;-4.28;100.00;100150.81;6716804;26;33878;-68
2021/12/04 07:14:55;;;;;;;44.15;20.65;;;;;;;-4.20;100.00;100148.63;6697351;26;34527;-69
2021/12/04 07:17:59;;;;;;;39.20;17.67;;;;;;;-4.07;100.00;100145.34;6697391;26;34843;-68
2021/12/04 07:21:02;;;;;;;37.78;17.70;;;;;;;-4.01;100.00;100147.59;6697298;26;34661;-69
2021/12/04 07:24:05;;;;;;;37.80;18.00;;;;;;;-3.89;100.00;100150.44;6716883;26;33829;-68
2021/12/04 07:27:07;;;;;;;38.63;17.52;;;;;;;-3.91;100.00;100142.75;6717112;26;34227;-68
2021/12/04 07:30:10;;;;;;;35.10;16.17;;;;;;;-3.87;100.00;100146.84;6715915;26;34592;-68
2021/12/04 07:33:13;;;;;;;33.10;16.67;;;;;;;-3.81;100.00;100140.50;6716912;26;33806;-69
2021/12/04 07:36:16;;;;;;;39.47;17.77;;;;;;;-3.74;100.00;100131.47;6716934;26;34331;-68
2021/12/04 07:39:19;;;;;;;39.67;16.65;;;;;;;-3.63;100.00;100129.16;6716685;26;34050;-68
2021/12/04 07:42:21;;;;;;;31.62;15.32;;;;;;;-3.49;100.00;100134.41;6716878;26;34038;-68
2021/12/04 07:45:24;;;;;;;35.85;15.57;;;;;;;-3.43;100.00;100126.25;6716851;26;34975;-68
2021/12/04 07:48:27;;;;;;;35.22;16.37;;;;;;;-3.41;100.00;100116.66;6716732;26;34139;-69
2021/12/04 07:51:29;;;;;;;32.70;15.73;;;;;;;-3.36;100.00;100117.22;6716197;26;33986;-67
2021/12/04 07:54:33;;;;;;;32.20;15.60;;;;;;;-3.33;100.00;100109.25;6716975;26;34424;-69
2021/12/04 07:57:36;;;;;;;39.75;16.75;;;;;;;-3.28;100.00;100107.25;6716583;26;34071;-68
2021/12/04 08:00:40;;;;;;;32.65;16.92;;;;;;;-3.26;100.00;100117.53;6716625;26;34931;-68
2021/12/04 08:03:43;;;;;;;34.67;16.87;;;;;;;-3.25;100.00;100122.66;6716878;26;33932;-68
2021/12/04 08:06:45;;;;;;;40.78;16.85;;;;;;;-3.17;100.00;100115.25;6696976;26;34374;-69
2021/12/04 08:09:48;;;;;;;40.45;19.25;;;;;;;-3.00;100.00;100116.88;6697085;26;35170;-69
2021/12/04 08:12:51;;;;;;;36.42;18.12;;;;;;;-3.00;100.00;100110.88;6678215;26;33985;-68
2021/12/04 08:15:54;;;;;;;40.75;18.45;;;;;;;-2.94;100.00;100115.69;6716799;26;34513;-69
2021/12/04 08:18:56;;;;;;;40.17;18.15;;;;;;;-2.83;100.00;100116.75;6716967;26;34546;-70
2021/12/04 08:21:59;;;;;;;38.92;17.10;;;;;;;-2.69;100.00;100116.75;6717142;26;34482;-69
2021/12/04 08:25:03;;;;;;;34.65;17.67;;;;;;;-2.45;99.71;100113.62;6716920;26;33888;-69
2021/12/04 08:28:06;;;;;;;37.88;19.00;;;;;;;-2.46;99.32;100120.56;6696954;26;33979;-69
2021/12/04 08:31:10;;;;;;;33.58;17.65;;;;;;;-2.33;98.94;100120.69;6716334;26;34148;-69
2021/12/04 08:34:14;;;;;;;37.33;18.00;;;;;;;-2.30;99.70;100121.34;6696993;26;34124;-69
2021/12/04 08:37:18;;;;;;;37.40;18.08;;;;;;;-2.24;99.66;100101.94;6716577;26;33685;-68
2021/12/04 08:40:20;;;;;;;36.30;18.12;;;;;;;-2.01;99.36;100100.53;6716645;26;34815;-69
2021/12/04 08:43:23;;;;;;;34.97;17.75;;;;;;;-1.86;98.25;100102.16;6716877;26;34012;-69
2021/12/04 08:46:35;;;;;;;40.17;16.73;;;;;;;-1.67;97.34;100094.87;6717499;26;34004;-68
2021/12/04 08:49:37;;;;;;;30.83;15.65;;;;;;;-1.48;94.86;100097.97;6717675;26;34596;-68
2021/12/04 08:52:41;;;;;;;33.90;15.60;;;;;;;-1.12;95.00;100086.94;6717644;26;33942;-68
2021/12/04 08:55:44;;;;;;;35.75;15.85;;;;;;;-0.94;94.40;100075.31;6697836;26;33979;-68
2021/12/04 08:58:47;;;;;;;35.00;15.68;;;;;;;-0.76;94.34;100088.84;6717848;26;34663;-68
2021/12/04 09:01:51;;;;;;;32.28;16.30;;;;;;;-0.71;92.23;100093.75;6717672;26;34041;-69
2021/12/04 09:04:56;;;;;;;36.80;16.30;;;;;;;-0.71;94.08;100084.19;6697754;26;35361;-67
2021/12/04 09:08:05;;;;;;;33.42;16.70;;;;;;;-0.52;93.49;100089.81;6717544;26;33569;-68
2021/12/04 09:11:13;;;;;;;29.50;15.18;;;;;;;-0.36;90.82;100088.75;6717674;26;34670;-67
2021/12/04 09:14:18;;;;;;;32.83;16.12;;;;;;;-0.21;89.63;100088.53;6717357;26;34677;-68
2021/12/04 09:17:22;;;;;;;34.55;14.18;;;;;;;-0.03;88.78;100079.41;6697790;26;34035;-69
2021/12/04 09:20:28;;;;;;;31.95;15.02;;;;;;;0.11;88.78;100072.38;6697782;26;34809;-67
2021/12/04 09:23:36;;;;;;;27.35;13.65;;;;;;;0.36;88.36;100061.88;6717689;26;34752;-68
2021/12/04 09:29:55;;;;;;;34.15;14.98;;;;;;;0.69;86.39;100054.19;6717573;26;34134;-67
2021/12/04 10:12:54;;;;;;;28.77;14.20;;;;;;;1.09;79.55;99984.13;6717122;26;33961;-67
2021/12/04 10:16:39;;;;;;;30.23;13.13;;;;;;;1.51;79.49;99982.59;6717138;26;34048;-68
2021/12/04 10:22:47;;;;;;;30.73;14.70;;;;;;;1.50;77.89;99974.88;6716701;26;34359;-67
2021/12/04 10:32:49;;;;;;;25.27;12.65;;;;;;;1.20;78.13;99952.81;6716472;26;34173;-66
2021/12/04 10:35:53;;;;;;;22.27;11.52;;;;;;;1.67;77.11;99943.84;6716491;26;33897;-67
2021/12/04 10:38:56;;;;;;;21.27;10.38;;;;;;;1.98;73.30;99950.06;6697052;26;34440;-66
2021/12/04 10:42:02;;;;;;;21.20;10.50;;;;;;;1.95;68.99;99945.06;6717176;26;34103;-67
2021/12/04 10:45:05;;;;;;;22.60;10.00;;;;;;;1.85;67.81;99931.06;6716435;26;34060;-68
2021/12/04 10:48:15;;;;;;;25.12;11.32;;;;;;;1.83;68.21;99930.38;6716962;26;33941;-67
2021/12/04 10:54:38;;;;;;;24.17;10.65;;;;;;;1.92;68.47;99919.16;6716915;26;34452;-66
2021/12/04 11:18:38;;;;;;;20.08;9.52;;;;;;;2.14;66.42;99892.06;6717259;26;34042;-67
2021/12/04 11:22:03;;;;;;;14.98;7.65;;;;;;;2.19;62.32;99880.28;6716269;26;33929;-66
2021/12/04 11:44:55;;;;;;;15.18;7.30;;;;;;;2.53;59.71;99844.25;6716182;26;34825;-67
2021/12/04 11:48:01;;;;;;;13.10;7.55;;;;;;;2.74;59.30;99835.53;6696942;26;33964;-67
2021/12/04 11:51:10;;;;;;;15.82;7.18;;;;;;;2.81;58.00;99827.00;6717103;26;34238;-67
2021/12/04 11:54:13;;;;;;;12.32;6.53;;;;;;;2.45;57.91;99819.69;6716351;26;34550;-67
2021/12/04 11:57:19;;;;;;;11.90;6.72;;;;;;;2.39;58.87;99818.41;6716036;26;35774;-67
2021/12/04 12:00:30;;;;;;;16.50;7.05;;;;;;;2.66;58.58;99806.56;6716405;26;34005;-67
2021/12/04 12:03:35;;;;;;;14.30;6.65;;;;;;;2.97;57.51;99800.31;6717246;26;33781;-67
2021/12/04 12:06:45;;;;;;;14.57;7.20;;;;;;;3.35;57.08;99803.03;6716806;26;34070;-67
2021/12/04 12:10:13;;;;;;;11.88;6.82;;;;;;;3.63;56.86;99795.34;6716871;26;34070;-68
2021/12/04 12:13:35;;;;;;;16.25;7.62;;;;;;;3.61;53.97;99777.09;6717079;26;33986;-67
2021/12/04 12:16:47;;;;;;;19.75;8.20;;;;;;;3.27;55.79;99784.53;6716536;26;34393;-67
2021/12/04 12:19:52;;;;;;;19.50;9.80;;;;;;;3.29;56.16;99776.53;6717486;26;34990;-68
2021/12/04 12:23:03;;;;;;;18.95;9.13;;;;;;;2.75;56.75;99779.59;6717813;26;33752;-66
2021/12/04 12:36:29;;;;;;;19.05;9.10;;;;;;;2.79;57.08;99781.81;6717514;26;34073;-67
2021/12/04 12:39:36;;;;;;;;;;;;;;;2.62;58.28;99779.78;6718275;26;34015;-66
2021/12/04 12:42:41;;;;;;;19.85;10.13;;;;;;;2.56;58.35;99777.72;6717566;26;34066;-67
2021/12/04 12:45:57;;;;;;;21.27;10.57;;;;;;;1.93;58.64;99770.91;6697635;26;33987;-66
2021/12/04 12:49:02;;;;;;;22.27;10.10;;;;;;;1.84;60.53;99771.69;6717249;26;34843;-68
2021/12/04 12:52:04;;;;;;;18.98;9.98;;;;;;;1.88;59.89;99768.69;6717507;26;33534;-67
2021/12/04 12:55:11;;;;;;;20.92;9.98;;;;;;;1.90;60.02;99766.75;6717266;26;34510;-67
2021/12/04 12:58:23;;;;;;;17.30;9.50;;;;;;;1.82;62.21;99769.19;6717670;26;34601;-67
2021/12/04 13:12:16;;;;;;;15.25;7.85;;;;;;;1.67;62.27;99754.75;6716934;26;33899;-67
2021/12/04 13:15:35;;;;;;;17.98;8.27;;;;;;;1.53;62.64;99755.06;6697583;26;34314;-66
2021/12/04 13:18:38;;;;;;;15.90;8.57;;;;;;;1.48;63.26;99752.81;6717854;26;34116;-66
2021/12/04 13:21:44;;;;;;;21.48;8.57;;;;;;;1.46;64.06;99746.88;6717709;26;34209;-67
2021/12/04 13:24:50;;;;;;;13.55;6.15;;;;;;;1.44;64.51;99754.03;6717759;26;34004;-66
2021/12/04 13:30:58;;;;;;;11.18;5.68;;;;;;;1.48;60.39;99759.84;6716788;26;34695;-66
2021/12/04 13:34:00;;;;;;;18.23;6.20;;;;;;;1.62;60.88;99759.53;6697661;26;34617;-66
2021/12/04 13:37:03;;;;;;;10.35;6.03;;;;;;;1.90;59.84;99763.28;6716940;26;35200;-66
2021/12/04 13:40:13;;;;;;;12.60;6.45;;;;;;;2.05;59.06;99751.56;6717249;26;33990;-66
2021/12/04 13:43:17;;;;;;;13.05;6.50;;;;;;;2.13;59.78;99751.75;6717107;26;33861;-66
2021/12/04 13:46:20;;;;;;;18.87;6.00;;;;;;;2.07;60.55;99731.34;6717342;26;35259;-66
2021/12/04 13:49:31;;;;;;;11.85;6.62;;;;;;;2.13;60.91;99736.84;6717532;26;35265;-66
2021/12/04 13:52:34;;;;;;;17.05;7.12;;;;;;;1.87;60.75;99738.25;6717728;26;34846;-65
2021/12/04 13:55:39;;;;;;;15.27;6.78;;;;;;;1.73;62.14;99731.56;6717257;26;34085;-66
2021/12/04 13:58:56;;;;;;;14.68;7.45;;;;;;;1.64;61.75;99729.69;6717356;26;34556;-65
2021/12/04 14:01:59;;;;;;;13.90;7.50;;;;;;;1.55;63.09;99724.41;6717295;26;34029;-66
2021/12/04 14:05:04;;;;;;;16.25;7.12;;;;;;;1.39;62.96;99710.94;6716404;26;34365;-66
2021/12/04 14:08:10;;;;;;;15.68;6.97;;;;;;;1.36;64.01;99693.69;6717206;26;33713;-66
2021/12/04 14:11:13;;;;;;;19.45;7.55;;;;;;;1.17;66.06;99699.59;6717393;26;34078;-66
2021/12/04 14:14:20;;;;;;;14.40;7.62;;;;;;;1.13;67.21;99697.38;6717507;26;33933;-65
2021/12/04 14:17:23;;;;;;;15.50;7.40;;;;;;;1.12;66.16;99683.47;6697435;26;34070;-65
2021/12/04 14:20:26;;;;;;;17.83;9.23;;;;;;;1.03;67.54;99665.13;6717153;26;34102;-66
2021/12/04 14:23:32;;;;;;;16.48;8.35;;;;;;;1.13;67.28;99656.41;6717041;26;35273;-66
2021/12/04 14:26:35;;;;;;;17.17;8.32;;;;;;;0.92;68.71;99645.09;6717028;26;34018;-66
2021/12/04 14:29:41;;;;;;;19.73;8.45;;;;;;;0.88;69.50;99643.69;6715647;26;34464;-66
2021/12/04 14:32:50;;;;;;;20.80;8.80;;;;;;;0.88;70.17;99641.06;6679315;26;33690;-66
2021/12/04 14:35:55;;;;;;;18.90;9.00;;;;;;;0.77;71.27;99654.19;6717374;26;34571;-66
2021/12/04 14:39:02;;;;;;;25.67;10.20;;;;;;;0.59;73.97;99658.25;6717447;26;33852;-66
2021/12/04 14:42:31;;;;;;;20.70;10.80;;;;;;;0.48;76.49;99668.72;6716861;26;34690;-66
2021/12/04 14:45:36;;;;;;;20.05;9.98;;;;;;;0.51;77.03;99664.09;6712690;26;34148;-65
2021/12/04 14:48:43;;;;;;;19.27;10.40;;;;;;;0.38;79.00;99658.19;6697621;26;33929;-66
2021/12/04 14:51:46;;;;;;;22.70;10.70;;;;;;;0.27;79.79;99661.62;6716786;26;34128;-65
2021/12/04 14:54:51;;;;;;;20.48;11.18;;;;;;;0.19;81.55;99661.41;6716979;26;34084;-65
2021/12/04 14:57:54;;;;;;;21.25;9.95;;;;;;;0.04;82.09;99654.78;6716951;26;35244;-65
2021/12/04 15:01:02;;;;;;;23.10;10.73;;;;;;;-0.12;83.57;99647.28;6717001;26;34702;-65
2021/12/04 15:04:05;;;;;;;19.40;10.48;;;;;;;-0.17;83.67;99649.44;6716205;26;33937;-65
2021/12/04 15:07:24;;;;;;;20.98;10.45;;;;;;;-0.36;84.15;99661.38;6697112;26;34009;-65
2021/12/04 15:10:27;;;;;;;24.37;11.20;;;;;;;-0.53;85.14;99660.03;6716992;26;33943;-65
2021/12/04 15:13:34;;;;;;;24.35;12.07;;;;;;;-0.55;85.77;99665.37;6697168;26;34359;-65
2021/12/04 15:16:50;;;;;;;23.70;12.18;;;;;;;-0.62;86.98;99674.56;6716882;26;33820;-65
2021/12/04 15:20:00;;;;;;;25.37;12.85;;;;;;;-0.46;89.26;99674.25;6717196;26;34594;-65
2021/12/04 15:23:07;;;;;;;27.70;12.52;;;;;;;-0.76;89.90;99676.53;6716894;26;33938;-65
2021/12/04 15:26:19;;;;;;;22.08;12.25;;;;;;;-0.91;90.44;99688.91;6697297;26;34182;-65
2021/12/04 15:29:26;;;;;;;25.00;14.18;;;;;;;-0.85;91.04;99701.50;6717205;26;34047;-65
2021/12/04 15:32:29;;;;;;;34.92;14.57;;;;;;;-0.95;92.16;99700.50;6716861;26;33970;-65
2021/12/04 15:35:36;;;;;;;27.92;14.50;;;;;;;-0.90;92.97;99701.00;6716854;26;34066;-65
2021/12/04 15:38:48;;;;;;;26.15;14.30;;;;;;;-0.91;93.97;99694.13;6716344;26;34055;-66
2021/12/04 15:42:10;;;;;;;29.75;14.18;;;;;;;-0.75;95.14;99693.84;6717037;26;33960;-65
2021/12/04 15:54:57;;;;;;;;;;;;;;;-0.96;97.31;99706.63;6717472;26;33926;-66
2021/12/04 15:58:05;;;;;;;32.42;17.33;;;;;;;-0.96;97.75;99704.88;6717046;26;34911;-65
2021/12/04 16:01:11;;;;;;;35.05;17.52;;;;;;;-0.98;98.53;99703.34;6696079;26;34560;-65
2021/12/04 16:04:24;;;;;;;35.40;17.42;;;;;;;-0.95;100.00;99695.28;6716076;26;34562;-67
2021/12/04 16:07:29;;;;;;;35.08;17.98;;;;;;;-1.01;100.00;99691.34;6717079;26;33953;-66
2021/12/04 16:10:35;;;;;;;30.67;17.62;;;;;;;-1.14;100.00;99698.41;6715922;26;33950;-65
2021/12/04 16:13:39;;;;;;;35.10;19.50;;;;;;;-1.20;100.00;99691.03;6696334;26;34656;-66
2021/12/04 16:16:42;;;;;;;40.25;19.58;;;;;;;-1.33;100.00;99683.28;6715971;26;34703;-66
2021/12/04 16:19:46;;;;;;;38.15;20.62;;;;;;;-1.35;100.00;99692.94;6716349;26;34254;-65
2021/12/04 16:22:52;;;;;;;38.67;21.27;;;;;;;-1.34;100.00;99683.38;6716550;26;35352;-66
2021/12/04 16:25:54;;;;;;;37.97;18.23;;;;;;;-1.42;100.00;99686.53;6717149;26;33834;-66
2021/12/04 16:35:57;;;;;;;39.28;19.85;;;;;;;-1.49;100.00;99679.25;6656865;26;34453;-65
2021/12/04 16:39:01;;;;;;;42.50;19.98;;;;;;;-1.46;100.00;99682.50;6640731;26;33948;-66
2021/12/04 16:42:07;;;;;;;44.40;18.30;;;;;;;-1.55;100.00;99682.31;6696787;26;34148;-65
2021/12/04 16:45:13;;;;;;;35.17;19.10;;;;;;;-1.69;100.00;99670.25;6716049;26;34108;-66
2021/12/04 16:48:16;;;;;;;40.50;20.62;;;;;;;-1.69;100.00;99662.47;6715657;26;34043;-65
2021/12/04 16:57:57;;;;;;;35.38;17.10;;;;;;;-1.72;100.00;99664.44;6716808;26;34362;-65
2021/12/04 17:01:01;;;;;;;34.63;19.25;;;;;;;-1.57;100.00;99660.78;6695872;26;34720;-65
2021/12/04 17:04:05;;;;;;;35.92;16.60;;;;;;;-1.36;100.00;99660.09;6716571;26;34355;-65
2021/12/04 17:07:08;;;;;;;31.42;16.17;;;;;;;-1.10;100.00;99658.19;6716976;26;34681;-65
2021/12/04 17:10:12;;;;;;;33.65;16.42;;;;;;;-0.95;100.00;99654.47;6717508;26;34700;-65
2021/12/04 17:13:15;;;;;;;33.15;16.52;;;;;;;-0.98;100.00;99648.66;6697620;26;34505;-65
2021/12/04 17:16:24;;;;;;;37.80;16.70;;;;;;;-1.11;100.00;99646.09;6717603;26;34744;-65
2021/12/04 17:19:28;;;;;;;32.35;15.63;;;;;;;-1.24;100.00;99652.31;6717432;26;34000;-65
2021/12/04 17:22:31;;;;;;;31.23;15.88;;;;;;;-1.42;100.00;99654.50;6717612;26;34749;-66
2021/12/04 17:25:36;;;;;;;33.88;15.48;;;;;;;-1.24;100.00;99657.53;6717486;26;34555;-65
2021/12/04 17:28:43;;;;;;;28.45;14.57;;;;;;;-0.92;100.00;99661.25;6717642;26;33919;-66
2021/12/04 17:31:52;;;;;;;30.73;14.48;;;;;;;-0.66;99.37;99649.69;6717261;26;34362;-65
2021/12/04 17:34:55;;;;;;;26.85;14.50;;;;;;;-0.68;99.38;99648.16;6716952;26;33883;-65